createdAt,value
2018-05-25T00:00:49.662Z,18.40
2018-05-25T00:03:17.170Z,18.40
2018-05-25T00:05:44.683Z,18.50
2018-05-25T00:08:12.126Z,18.50
2018-05-25T00:10:39.554Z,18.50
2018-05-25T00:13:07.021Z,18.50
2018-05-25T00:15:34.589Z,18.50
2018-05-25T00:18:02.042Z,18.50
2018-05-25T00:20:29.494Z,18.50
2018-05-25T00:22:56.979Z,18.50
2018-05-25T00:25:24.434Z,18.40
2018-05-25T00:27:51.861Z,18.40
2018-05-25T00:30:19.355Z,18.50
2018-05-25T00:32:46.883Z,18.50
2018-05-25T00:35:14.314Z,18.50
2018-05-25T00:37:41.753Z,18.50
2018-05-25T00:40:09.222Z,18.50
2018-05-25T00:42:36.674Z,18.50
2018-05-25T00:45:04.172Z,18.50
2018-05-25T00:47:31.646Z,18.50
2018-05-25T00:49:59.110Z,18.50
2018-05-25T00:52:26.568Z,18.50
2018-05-25T00:55:05.850Z,18.50
2018-05-25T00:57:33.280Z,18.50
2018-05-25T01:00:01.606Z,18.40
2018-05-25T01:02:29.090Z,18.40
2018-05-25T01:04:57.340Z,18.40
2018-05-25T01:07:24.794Z,18.40
2018-05-25T01:09:52.238Z,18.40
2018-05-25T01:12:20.673Z,18.40
2018-05-25T01:14:48.897Z,18.50
2018-05-25T01:17:16.362Z,18.40
2018-05-25T01:19:43.846Z,18.40
2018-05-25T01:22:11.298Z,18.40
2018-05-25T01:24:38.865Z,18.40
2018-05-25T01:27:06.429Z,18.40
2018-05-25T01:29:35.385Z,18.40
2018-05-25T01:32:03.625Z,18.40
2018-05-25T01:34:31.822Z,18.40
2018-05-25T01:36:59.296Z,18.40
2018-05-25T01:39:26.738Z,18.40
2018-05-25T01:41:54.242Z,18.40
2018-05-25T01:44:21.702Z,18.40
2018-05-25T01:46:49.253Z,18.40
2018-05-25T01:49:16.686Z,18.40
2018-05-25T01:51:44.270Z,18.40
2018-05-25T01:54:11.702Z,18.40
2018-05-25T01:56:39.157Z,18.40
2018-05-25T01:59:06.611Z,18.40
2018-05-25T02:01:34.082Z,18.30
2018-05-25T02:04:01.522Z,18.40
2018-05-25T02:06:28.983Z,18.30
2018-05-25T02:08:56.530Z,18.30
2018-05-25T02:11:23.990Z,18.30
2018-05-25T02:13:51.534Z,18.20
2018-05-25T02:16:18.982Z,18.30
2018-05-25T02:18:47.217Z,18.20
2018-05-25T02:21:14.753Z,18.20
2018-05-25T02:23:42.845Z,18.20
2018-05-25T02:26:10.294Z,18.30
2018-05-25T02:28:37.725Z,18.30
2018-05-25T02:31:05.318Z,18.20
2018-05-25T02:33:32.783Z,18.20
2018-05-25T02:36:00.341Z,18.20
2018-05-25T02:38:27.893Z,18.20
2018-05-25T02:40:55.358Z,18.20
2018-05-25T02:43:22.817Z,18.20
2018-05-25T02:45:50.372Z,18.20
2018-05-25T02:48:18.611Z,18.10
2018-05-25T02:50:46.075Z,18.10
2018-05-25T02:53:13.531Z,18.20
2018-05-25T02:55:40.993Z,18.10
2018-05-25T02:58:08.550Z,18.10
2018-05-25T03:00:36.031Z,18.10
2018-05-25T03:03:03.567Z,18.00
2018-05-25T03:05:31.027Z,18.00
2018-05-25T03:07:58.480Z,18.00
2018-05-25T03:10:26.035Z,18.00
2018-05-25T03:12:53.525Z,18.00
2018-05-25T03:15:20.954Z,17.90
2018-05-25T03:17:48.417Z,17.90
2018-05-25T03:20:15.994Z,17.90
2018-05-25T03:22:43.426Z,17.90
2018-05-25T03:25:10.870Z,18.00
2018-05-25T03:27:38.329Z,18.00
2018-05-25T03:30:05.778Z,18.10
2018-05-25T03:32:33.238Z,18.10
2018-05-25T03:35:00.733Z,18.10
2018-05-25T03:37:28.198Z,18.10
2018-05-25T03:39:55.768Z,18.10
2018-05-25T03:42:24.014Z,18.20
2018-05-25T03:44:51.459Z,18.20
2018-05-25T03:47:18.902Z,18.20
2018-05-25T03:49:46.374Z,18.20
2018-05-25T03:52:13.866Z,18.10
2018-05-25T03:54:41.290Z,18.10
2018-05-25T03:57:08.772Z,18.10
2018-05-25T03:59:48.303Z,18.10
2018-05-25T04:02:15.739Z,18.10
2018-05-25T04:04:43.173Z,18.10
2018-05-25T04:07:10.658Z,18.10
2018-05-25T04:09:38.126Z,18.10
2018-05-25T04:12:06.524Z,18.20
2018-05-25T04:14:33.995Z,18.20
2018-05-25T04:17:02.227Z,18.10
2018-05-25T04:19:29.674Z,18.10
2018-05-25T04:21:57.119Z,18.20
2018-05-25T04:24:24.614Z,18.20
2018-05-25T04:26:52.182Z,18.20
2018-05-25T04:29:19.742Z,18.20
2018-05-25T04:31:47.275Z,18.20
2018-05-25T04:34:14.766Z,18.20
2018-05-25T04:36:42.289Z,18.20
2018-05-25T04:39:09.888Z,18.20
2018-05-25T04:41:38.255Z,18.20
2018-05-25T04:44:05.793Z,18.30
2018-05-25T04:46:33.341Z,18.30
2018-05-25T04:49:00.818Z,18.30
2018-05-25T04:51:28.367Z,18.30
2018-05-25T04:53:55.798Z,18.30
2018-05-25T04:56:23.279Z,18.40
2018-05-25T04:58:51.435Z,18.40
2018-05-25T05:01:18.941Z,18.40
2018-05-25T05:03:46.502Z,18.40
2018-05-25T05:06:14.023Z,18.40
2018-05-25T05:08:42.227Z,18.40
2018-05-25T05:11:09.698Z,18.40
2018-05-25T05:13:37.930Z,18.40
2018-05-25T05:16:05.423Z,18.40
2018-05-25T05:18:33.770Z,18.40
2018-05-25T05:21:01.254Z,18.40
2018-05-25T05:23:28.778Z,18.40
2018-05-25T05:25:56.235Z,18.50
2018-05-25T05:28:23.693Z,18.50
2018-05-25T05:30:51.150Z,18.50
2018-05-25T05:33:18.606Z,18.50
2018-05-25T05:35:46.180Z,18.50
2018-05-25T05:38:13.655Z,18.50
2018-05-25T05:40:41.214Z,18.60
2018-05-25T05:43:08.675Z,18.60
2018-05-25T05:45:36.142Z,18.60
2018-05-25T05:48:03.661Z,18.60
2018-05-25T05:50:31.094Z,18.60
2018-05-25T05:52:58.567Z,18.60
2018-05-25T05:55:26.027Z,18.50
2018-05-25T05:57:53.496Z,18.60
2018-05-25T06:00:20.961Z,18.60
2018-05-25T06:02:48.502Z,18.60
2018-05-25T06:05:15.966Z,18.60
2018-05-25T06:07:43.406Z,18.60
2018-05-25T06:10:10.848Z,18.60
2018-05-25T06:12:38.285Z,18.60
2018-05-25T06:15:05.818Z,18.60
2018-05-25T06:17:33.353Z,18.70
2018-05-25T06:20:00.993Z,18.70
2018-05-25T06:22:29.176Z,18.60
2018-05-25T06:24:56.638Z,18.60
2018-05-25T06:27:24.234Z,18.60
2018-05-25T06:29:51.667Z,18.70
2018-05-25T06:32:19.230Z,18.70
2018-05-25T06:34:46.830Z,18.70
2018-05-25T06:37:14.234Z,18.70
2018-05-25T06:39:41.712Z,18.80
2018-05-25T06:42:09.146Z,18.70
2018-05-25T06:44:36.734Z,18.70
2018-05-25T06:47:04.292Z,18.70
2018-05-25T06:49:31.821Z,18.80
2018-05-25T06:51:59.314Z,18.80
2018-05-25T06:54:26.840Z,18.80
2018-05-25T06:56:54.326Z,18.80
2018-05-25T06:59:21.885Z,18.80
2018-05-25T07:01:49.354Z,18.80
2018-05-25T07:04:16.882Z,18.80
2018-05-25T07:06:44.310Z,18.80
2018-05-25T07:09:11.814Z,18.80
2018-05-25T07:11:39.370Z,18.80
2018-05-25T07:14:06.805Z,18.80
2018-05-25T07:16:34.387Z,18.80
2018-05-25T07:19:01.822Z,18.80
2018-05-25T07:21:29.273Z,18.80
2018-05-25T07:23:56.735Z,18.80
2018-05-25T07:26:24.226Z,18.80
2018-05-25T07:28:51.659Z,18.90
2018-05-25T07:31:19.095Z,18.90
2018-05-25T07:33:46.675Z,18.90
2018-05-25T07:36:14.142Z,18.90
2018-05-25T07:38:41.682Z,18.90
2018-05-25T07:41:09.196Z,18.90
2018-05-25T07:43:36.693Z,19.00
2018-05-25T07:46:04.163Z,19.00
2018-05-25T07:48:31.710Z,19.10
2018-05-25T07:51:00.078Z,19.10
2018-05-25T07:53:27.510Z,19.10
2018-05-25T07:55:54.955Z,19.10
2018-05-25T07:58:23.178Z,19.20
2018-05-25T08:00:50.767Z,19.10
2018-05-25T08:03:18.222Z,19.20
2018-05-25T08:05:47.175Z,19.20
2018-05-25T08:08:14.649Z,19.20
2018-05-25T08:10:42.116Z,19.20
2018-05-25T08:13:09.574Z,19.20
2018-05-25T08:15:37.145Z,19.20
2018-05-25T08:18:04.686Z,19.30
2018-05-25T08:20:32.147Z,19.30
2018-05-25T08:22:59.619Z,19.30
2018-05-25T08:25:27.046Z,19.40
2018-05-25T08:27:54.530Z,19.30
2018-05-25T08:30:22.062Z,19.30
2018-05-25T08:32:49.552Z,19.30
2018-05-25T08:35:17.102Z,19.30
2018-05-25T08:37:44.545Z,19.30
2018-05-25T08:40:12.101Z,19.30
2018-05-25T08:42:39.567Z,19.30
2018-05-25T08:45:07.018Z,19.40
2018-05-25T08:47:34.594Z,19.40
2018-05-25T08:50:02.043Z,19.40
2018-05-25T08:52:29.500Z,19.40
2018-05-25T08:54:57.042Z,19.50
2018-05-25T08:57:24.540Z,19.50
2018-05-25T08:59:52.786Z,19.50
2018-05-25T09:02:20.358Z,19.50
2018-05-25T09:04:47.802Z,19.50
2018-05-25T09:07:15.379Z,19.60
2018-05-25T09:09:43.418Z,19.60
2018-05-25T09:12:10.901Z,19.60
2018-05-25T09:14:38.353Z,19.60
2018-05-25T09:17:05.924Z,19.60
2018-05-25T09:19:33.485Z,19.60
2018-05-25T09:22:01.048Z,19.60
2018-05-25T09:24:28.511Z,19.60
2018-05-25T09:26:56.742Z,19.60
2018-05-25T09:29:24.197Z,19.60
2018-05-25T09:31:51.659Z,19.60
2018-05-25T09:34:19.144Z,19.70
2018-05-25T09:36:46.614Z,19.70
2018-05-25T09:39:14.107Z,19.60
2018-05-25T09:41:41.570Z,19.70
2018-05-25T09:44:09.079Z,19.70
2018-05-25T09:46:36.513Z,19.70
2018-05-25T09:49:03.958Z,19.70
2018-05-25T09:51:31.426Z,19.70
2018-05-25T09:53:58.974Z,19.70
2018-05-25T09:56:26.442Z,19.70
2018-05-25T09:58:53.923Z,19.70
2018-05-25T10:01:21.456Z,19.70
2018-05-25T10:03:49.038Z,19.70
2018-05-25T10:06:16.966Z,19.70
2018-05-25T10:08:44.419Z,19.70
2018-05-25T10:11:12.498Z,19.70
2018-05-25T10:13:39.980Z,19.60
2018-05-25T10:16:07.403Z,19.70
2018-05-25T10:18:34.842Z,19.70
2018-05-25T10:21:02.306Z,19.70
2018-05-25T10:23:29.818Z,19.70
2018-05-25T10:25:57.374Z,19.80
2018-05-25T10:28:24.837Z,19.80
2018-05-25T10:30:52.390Z,19.80
2018-05-25T10:33:20.665Z,19.90
2018-05-25T10:35:48.231Z,19.90
2018-05-25T10:38:15.786Z,19.90
2018-05-25T10:40:43.251Z,19.90
2018-05-25T10:43:10.714Z,19.90
2018-05-25T10:45:38.266Z,20.00
2018-05-25T10:48:05.817Z,20.00
2018-05-25T10:50:33.286Z,20.00
2018-05-25T10:53:00.713Z,20.10
2018-05-25T10:55:28.189Z,20.10
2018-05-25T10:57:55.630Z,20.20
2018-05-25T11:00:23.070Z,20.20
2018-05-25T11:02:50.549Z,20.30
2018-05-25T11:05:18.438Z,20.30
2018-05-25T11:07:45.897Z,20.30
2018-05-25T11:10:14.143Z,20.30
2018-05-25T11:12:41.694Z,20.30
2018-05-25T11:15:09.174Z,20.40
2018-05-25T11:17:36.654Z,20.40
2018-05-25T11:20:04.914Z,20.50
2018-05-25T11:22:32.386Z,20.40
2018-05-25T11:25:00.614Z,20.50
2018-05-25T11:27:28.225Z,20.50
2018-05-25T11:29:56.479Z,20.50
2018-05-25T11:32:24.043Z,20.50
2018-05-25T11:34:51.499Z,20.50
2018-05-25T11:37:19.743Z,20.50
2018-05-25T11:39:47.334Z,20.50
2018-05-25T11:42:14.798Z,20.50
2018-05-25T11:44:42.233Z,20.60
2018-05-25T11:47:09.669Z,20.70
2018-05-25T11:49:37.130Z,20.70
2018-05-25T11:52:04.586Z,20.70
2018-05-25T11:54:32.071Z,20.80
2018-05-25T11:56:59.519Z,20.80
2018-05-25T11:59:27.061Z,20.80
2018-05-25T12:01:54.546Z,20.80
2018-05-25T12:04:21.998Z,20.90
2018-05-25T12:06:49.436Z,20.90
2018-05-25T12:09:16.878Z,20.90
2018-05-25T12:11:44.331Z,20.90
2018-05-25T12:14:11.801Z,20.90
2018-05-25T12:16:39.274Z,20.90
2018-05-25T12:19:06.838Z,20.90
2018-05-25T12:21:34.291Z,20.80
2018-05-25T12:24:01.831Z,20.80
2018-05-25T12:26:29.270Z,20.90
2018-05-25T12:28:56.726Z,20.90
2018-05-25T12:31:24.157Z,20.90
2018-05-25T12:33:51.621Z,21.00
2018-05-25T12:36:19.049Z,21.00
2018-05-25T12:38:46.495Z,20.90
2018-05-25T12:41:13.974Z,20.80
2018-05-25T12:43:42.233Z,20.70
2018-05-25T12:46:09.657Z,20.70
2018-05-25T12:48:37.114Z,20.70
2018-05-25T12:51:04.602Z,20.70
2018-05-25T12:53:32.145Z,20.60
2018-05-25T12:55:59.714Z,20.60
2018-05-25T12:58:27.965Z,20.60
2018-05-25T13:00:55.426Z,20.60
2018-05-25T13:03:23.010Z,20.60
2018-05-25T13:05:50.469Z,20.60
2018-05-25T13:08:18.757Z,20.60
2018-05-25T13:10:46.184Z,20.60
2018-05-25T13:13:13.670Z,20.70
2018-05-25T13:15:41.129Z,20.60
2018-05-25T13:18:08.687Z,20.70
2018-05-25T13:20:36.145Z,20.70
2018-05-25T13:23:03.668Z,20.70
2018-05-25T13:25:31.125Z,20.70
2018-05-25T13:27:58.592Z,20.70
2018-05-25T13:30:26.317Z,20.60
2018-05-25T13:32:53.827Z,20.60
2018-05-25T13:35:21.407Z,20.60
2018-05-25T13:37:49.629Z,20.70
2018-05-25T13:40:17.118Z,20.60
2018-05-25T13:42:44.648Z,20.70
2018-05-25T13:45:12.138Z,20.70
2018-05-25T13:47:39.670Z,20.70
2018-05-25T13:50:07.150Z,20.70
2018-05-25T13:52:34.583Z,20.70
2018-05-25T13:55:02.024Z,20.60
2018-05-25T13:57:29.522Z,20.60
2018-05-25T13:59:56.954Z,20.60
2018-05-25T14:02:24.406Z,20.70
2018-05-25T14:04:51.894Z,20.70
2018-05-25T14:07:19.321Z,20.60
2018-05-25T14:09:46.906Z,20.60
2018-05-25T14:12:14.334Z,20.60
2018-05-25T14:14:41.790Z,20.60
2018-05-25T14:17:09.250Z,20.60
2018-05-25T14:19:36.685Z,20.60
2018-05-25T14:22:04.144Z,20.60
2018-05-25T14:24:31.658Z,20.60
2018-05-25T14:26:59.081Z,20.60
2018-05-25T14:29:26.549Z,20.70
2018-05-25T14:31:54.298Z,20.70
2018-05-25T14:34:21.767Z,20.70
2018-05-25T14:36:49.218Z,20.70
2018-05-25T14:39:16.650Z,20.70
2018-05-25T14:41:44.134Z,20.70
2018-05-25T14:44:11.686Z,20.70
2018-05-25T14:46:39.130Z,20.70
2018-05-25T14:49:06.590Z,20.70
2018-05-25T14:51:34.033Z,20.70
2018-05-25T14:54:02.215Z,20.70
2018-05-25T14:56:29.609Z,20.80
2018-05-25T14:58:57.209Z,20.80
2018-05-25T15:01:25.455Z,20.80
2018-05-25T15:03:52.915Z,20.70
2018-05-25T15:06:20.374Z,20.80
2018-05-25T15:08:47.915Z,20.80
2018-05-25T15:11:15.387Z,20.80
2018-05-25T15:13:42.854Z,20.80
2018-05-25T15:16:11.050Z,20.80
2018-05-25T15:18:38.547Z,20.80
2018-05-25T15:21:06.143Z,20.80
2018-05-25T15:23:33.578Z,20.80
2018-05-25T15:26:01.122Z,20.80
2018-05-25T15:28:28.605Z,20.80
2018-05-25T15:30:56.148Z,20.80
2018-05-25T15:33:23.501Z,20.80
2018-05-25T15:35:50.946Z,20.80
2018-05-25T15:38:18.426Z,20.80
2018-05-25T15:40:45.957Z,20.80
2018-05-25T15:43:13.415Z,20.80
2018-05-25T15:45:40.849Z,20.80
2018-05-25T15:48:08.365Z,20.80
2018-05-25T15:50:35.894Z,20.80
2018-05-25T15:53:03.378Z,20.80
2018-05-25T15:55:30.806Z,20.80
2018-05-25T15:57:58.368Z,20.80
2018-05-25T16:00:25.922Z,20.70
2018-05-25T16:02:53.388Z,20.70
2018-05-25T16:05:20.850Z,20.70
2018-05-25T16:07:48.282Z,20.70
2018-05-25T16:10:15.777Z,20.70
2018-05-25T16:12:43.333Z,20.70
2018-05-25T16:15:10.795Z,20.70
2018-05-25T16:17:38.270Z,20.70
2018-05-25T16:20:06.461Z,20.70
2018-05-25T16:22:34.314Z,20.70
2018-05-25T16:25:02.566Z,20.70
2018-05-25T16:27:30.122Z,20.60
2018-05-25T16:29:57.653Z,20.70
2018-05-25T16:32:25.150Z,20.70
2018-05-25T16:34:52.606Z,20.60
2018-05-25T16:37:20.159Z,20.60
2018-05-25T16:39:47.620Z,20.60
2018-05-25T16:42:15.082Z,20.60
2018-05-25T16:44:43.287Z,20.60
2018-05-25T16:47:10.753Z,20.60
2018-05-25T16:49:38.234Z,20.60
2018-05-25T16:52:05.691Z,20.60
2018-05-25T16:54:33.145Z,20.60
2018-05-25T16:57:00.611Z,20.60
2018-05-25T16:59:28.094Z,20.60
2018-05-25T17:01:55.519Z,20.60
2018-05-25T17:04:23.002Z,20.60
2018-05-25T17:06:50.539Z,20.60
2018-05-25T17:09:18.008Z,20.60
2018-05-25T17:11:45.460Z,20.60
2018-05-25T17:14:12.898Z,20.60
2018-05-25T17:16:40.336Z,20.60
2018-05-25T17:19:07.818Z,20.60
2018-05-25T17:21:35.274Z,20.60
2018-05-25T17:24:02.731Z,20.60
2018-05-25T17:26:30.329Z,20.60
2018-05-25T17:28:57.750Z,20.60
2018-05-25T17:31:25.230Z,20.60
2018-05-25T17:33:52.669Z,20.60
2018-05-25T17:36:20.146Z,20.60
2018-05-25T17:38:47.722Z,20.60
2018-05-25T17:41:15.152Z,20.60
2018-05-25T17:43:42.618Z,20.60
2018-05-25T17:46:10.082Z,20.60
2018-05-25T17:48:37.550Z,20.60
2018-05-25T17:51:05.798Z,20.60
2018-05-25T17:53:33.374Z,20.50
2018-05-25T17:56:00.835Z,20.60
2018-05-25T17:58:28.307Z,20.50
2018-05-25T18:00:56.552Z,20.50
2018-05-25T18:03:23.967Z,20.50
2018-05-25T18:05:51.443Z,20.50
2018-05-25T18:08:18.896Z,20.50
2018-05-25T18:10:46.366Z,20.50
2018-05-25T18:13:13.948Z,20.50
2018-05-25T18:15:41.413Z,20.50
2018-05-25T18:18:09.487Z,20.50
2018-05-25T18:20:36.948Z,20.50
2018-05-25T18:23:05.168Z,20.50
2018-05-25T18:25:32.617Z,20.50
2018-05-25T18:28:00.043Z,20.50
2018-05-25T18:30:28.270Z,20.50
2018-05-25T18:32:55.730Z,20.50
2018-05-25T18:35:23.206Z,20.50
2018-05-25T18:37:50.685Z,20.50
2018-05-25T18:40:18.892Z,20.40
2018-05-25T18:42:46.350Z,20.40
2018-05-25T18:45:13.806Z,20.40
2018-05-25T18:47:41.294Z,20.50
2018-05-25T18:50:08.778Z,20.50
2018-05-25T18:52:36.975Z,20.40
2018-05-25T18:55:04.443Z,20.40
2018-05-25T18:57:32.786Z,20.40
2018-05-25T19:00:00.309Z,20.40
2018-05-25T19:02:27.745Z,20.40
2018-05-25T19:04:55.239Z,20.40
2018-05-25T19:07:22.706Z,20.40
2018-05-25T19:09:50.265Z,20.40
2018-05-25T19:12:17.797Z,20.40
2018-05-25T19:14:45.234Z,20.40
2018-05-25T19:17:12.715Z,20.40
2018-05-25T19:19:40.154Z,20.30
2018-05-25T19:22:07.618Z,20.40
2018-05-25T19:24:35.096Z,20.30
2018-05-25T19:27:02.538Z,20.30
2018-05-25T19:29:29.977Z,20.30
2018-05-25T19:31:57.460Z,20.30
2018-05-25T19:34:24.941Z,20.30
2018-05-25T19:36:52.365Z,20.30
2018-05-25T19:39:19.845Z,20.30
2018-05-25T19:41:47.306Z,20.30
2018-05-25T19:44:14.870Z,20.30
2018-05-25T19:46:42.430Z,20.20
2018-05-25T19:49:09.878Z,20.30
2018-05-25T19:51:37.325Z,20.20
2018-05-25T19:54:04.797Z,20.30
2018-05-25T19:56:32.254Z,20.20
2018-05-25T19:58:59.710Z,20.20
2018-05-25T20:01:27.286Z,20.10
2018-05-25T20:03:55.565Z,20.20
2018-05-25T20:06:23.753Z,20.10
2018-05-25T20:08:51.249Z,20.10
2018-05-25T20:11:18.849Z,20.10
2018-05-25T20:13:46.339Z,20.10
2018-05-25T20:16:14.707Z,20.10
2018-05-25T20:18:42.106Z,20.10
2018-05-25T20:21:09.579Z,20.00
2018-05-25T20:23:37.126Z,20.10
2018-05-25T20:26:04.708Z,20.00
2018-05-25T20:28:32.161Z,20.00
2018-05-25T20:30:59.577Z,20.00
2018-05-25T20:33:27.034Z,20.00
2018-05-25T20:35:54.534Z,20.00
2018-05-25T20:38:22.089Z,20.00
2018-05-25T20:40:49.556Z,20.00
2018-05-25T20:43:16.984Z,20.00
2018-05-25T20:45:44.470Z,20.00
2018-05-25T20:48:11.921Z,20.00
2018-05-25T20:50:40.145Z,19.90
2018-05-25T20:53:07.594Z,19.90
2018-05-25T20:55:35.040Z,19.90
2018-05-25T20:58:02.498Z,20.00
2018-05-25T21:00:30.706Z,19.90
2018-05-25T21:02:58.925Z,19.90
2018-05-25T21:05:26.406Z,19.80
2018-05-25T21:07:53.879Z,19.90
2018-05-25T21:10:21.326Z,19.80
2018-05-25T21:12:48.778Z,19.80
2018-05-25T21:15:16.216Z,19.80
2018-05-25T21:17:44.458Z,19.80
2018-05-25T21:20:11.890Z,19.80
2018-05-25T21:22:39.310Z,19.80
2018-05-25T21:25:07.515Z,19.70
2018-05-25T21:27:34.967Z,19.70
2018-05-25T21:30:02.544Z,19.70
2018-05-25T21:32:29.862Z,19.70
2018-05-25T21:34:57.321Z,19.70
2018-05-25T21:37:24.750Z,19.70
2018-05-25T21:39:52.207Z,19.70
2018-05-25T21:42:19.666Z,19.70
2018-05-25T21:44:47.114Z,19.70
2018-05-25T21:47:14.586Z,19.60
2018-05-25T21:49:42.036Z,19.60
2018-05-25T21:52:09.458Z,19.50
2018-05-25T21:54:36.925Z,19.50
2018-05-25T21:57:04.354Z,19.50
2018-05-25T21:59:31.790Z,19.50
2018-05-25T22:01:59.218Z,19.60
2018-05-25T22:04:26.757Z,19.60
2018-05-25T22:06:54.175Z,19.60
2018-05-25T22:09:21.614Z,19.50
2018-05-25T22:11:49.075Z,19.50
2018-05-25T22:14:17.278Z,19.50
2018-05-25T22:16:44.816Z,19.50
2018-05-25T22:19:12.169Z,19.50
2018-05-25T22:21:39.614Z,19.50
2018-05-25T22:24:07.082Z,19.50
2018-05-25T22:26:34.512Z,19.40
2018-05-25T22:29:02.710Z,19.30
2018-05-25T22:31:30.142Z,19.30
2018-05-25T22:33:58.346Z,19.40
2018-05-25T22:36:25.808Z,19.40
2018-05-25T22:38:53.226Z,19.40
2018-05-25T22:41:21.466Z,19.40
2018-05-25T22:44:00.514Z,19.40
2018-05-25T22:46:39.750Z,19.40
2018-05-25T22:49:19.022Z,19.40
2018-05-25T22:51:58.181Z,19.30
2018-05-25T22:54:34.586Z,19.30
2018-05-25T22:57:02.042Z,19.30
2018-05-25T22:59:29.471Z,19.30
2018-05-25T23:01:56.914Z,19.30
2018-05-25T23:04:24.386Z,19.20
2018-05-25T23:06:51.839Z,19.20
2018-05-25T23:09:19.281Z,19.10
2018-05-25T23:11:46.738Z,19.20
2018-05-25T23:14:14.211Z,19.20
2018-05-25T23:16:41.698Z,19.10
2018-05-25T23:19:09.258Z,19.20
2018-05-25T23:21:36.814Z,19.30
2018-05-25T23:24:04.380Z,19.30
2018-05-25T23:26:31.799Z,19.20
2018-05-25T23:28:59.242Z,19.20
2018-05-25T23:31:26.736Z,19.30
2018-05-25T23:33:54.273Z,19.20
2018-05-25T23:36:21.709Z,19.20
2018-05-25T23:38:49.218Z,19.20
2018-05-25T23:41:17.415Z,19.10
2018-05-25T23:43:45.638Z,19.10
2018-05-25T23:46:13.085Z,19.10
2018-05-25T23:48:40.583Z,19.10
2018-05-25T23:51:08.033Z,19.10
2018-05-25T23:53:35.457Z,19.10
2018-05-25T23:56:02.926Z,19.10
2018-05-25T23:58:30.370Z,19.10
